| time (UTC) | temp C | wind direction | speed KPH | gust KPH | rain 1hr cm | rain 24hr cm | rain mn cm | humidity % | barometer mb |
| 20260508195341 | 13 | 245 | 14.5 | 27.4 | 0.00 | 0.79 | 0.00 | 49 | 1003.7 |
| 20260508194346 | 13 | 252 | 11.3 | 27.4 | 0.00 | 0.79 | 0.00 | 49 | 1003.8 |
| 20260508193351 | 13 | 323 | 11.3 | 32.2 | 0.00 | 0.79 | 0.00 | 48 | 1003.7 |
| 20260508192333 | 13 | 285 | 17.7 | 33.8 | 0.00 | 0.79 | 0.00 | 49 | 1003.7 |
| 20260508191338 | 13 | 270 | 19.3 | 30.6 | 0.00 | 0.79 | 0.00 | 50 | 1003.7 |
| 20260508190334 | 13 | 296 | 12.9 | 32.2 | 0.00 | 0.79 | 0.00 | 51 | 1003.5 |
| 20260508185340 | 13 | 243 | 12.9 | 24.1 | 0.00 | 0.79 | 0.00 | 51 | 1003.8 |
| 20260508184345 | 13 | 300 | 14.5 | 48.3 | 0.00 | 0.79 | 0.00 | 52 | 1003.8 |
| 20260508183349 | 13 | 288 | 12.9 | 32.2 | 0.00 | 0.79 | 0.00 | 55 | 1003.5 |
| 20260508182350 | 12 | 271 | 14.5 | 32.2 | 0.00 | 0.79 | 0.00 | 56 | 1003.5 |
| 20260508181351 | 13 | 283 | 12.9 | 24.1 | 0.00 | 0.79 | 0.00 | 56 | 1003.5 |
| 20260508180353 | 12 | 297 | 12.9 | 27.4 | 0.00 | 0.79 | 0.00 | 57 | 1003.3 |
| 20260508175353 | 12 | 283 | 12.9 | 29.0 | 0.00 | 0.79 | 0.00 | 58 | 1003.3 |
| 20260508174337 | 12 | 205 | 14.5 | 33.8 | 0.00 | 0.79 | 0.00 | 60 | 1003.5 |
| 20260508173339 | 12 | 252 | 9.7 | 27.4 | 0.00 | 0.79 | 0.00 | 62 | 1003.4 |
| 20260508172344 | 12 | 266 | 9.7 | 24.1 | 0.00 | 0.79 | 0.00 | 63 | 1003.4 |
| 20260508171411 | 12 | 283 | 12.9 | 25.7 | 0.00 | 0.79 | 0.00 | 63 | 1003.5 |
| 20260508170352 | 12 | 253 | 19.3 | 32.2 | 0.00 | 0.79 | 0.00 | 64 | 1003.6 |
| 20260508165336 | 12 | 186 | 12.9 | 25.7 | 0.00 | 0.79 | 0.00 | 64 | 1003.5 |
| 20260508164355 | 11 | 297 | 16.1 | 29.0 | 0.00 | 0.79 | 0.00 | 66 | 1003.3 |
| 20260508163357 | 11 | 216 | 9.7 | 25.7 | 0.00 | 0.79 | 0.00 | 65 | 1003.5 |
| 20260508162351 | 11 | 272 | 11.3 | 20.9 | 0.00 | 0.79 | 0.00 | 66 | 1003.5 |
| 20260508160347 | 11 | 266 | 8.0 | 27.4 | 0.00 | 0.79 | 0.00 | 68 | 1003.5 |
| 20260508155338 | 11 | 273 | 12.9 | 24.1 | 0.00 | 0.79 | 0.00 | 69 | 1003.7 |
| 20260508154340 | 11 | 302 | 8.0 | 24.1 | 0.00 | 0.79 | 0.00 | 69 | 1003.7 |